Time,TemperatureF,DewpointF,PressureIn,WindDirection,WindDirectionDegrees,WindSpeedMPH,WindSpeedGustMPH,Humidity,HourlyPrecipIn,Conditions,Clouds,dailyrainin,SoftwareType,DateUTC
2013-04-30 00:02:00,41.5,33.9,30.25,SSW,209,0.0,4.0,74,0.00,RA,FEW,0.00,WeatherDisplay:10.37,2013-04-30 07:02:00,
2013-04-30 00:17:00,41.9,34.5,30.26,North,349,3.0,9.0,75,0.00,FEW,FEW,0.00,WeatherDisplay:10.37,2013-04-30 07:17:00,
2013-04-30 00:32:00,42.6,34.9,30.27,North,349,1.0,8.0,74,0.00,FEW,FEW,0.00,WeatherDisplay:10.37,2013-04-30 07:32:00,
2013-04-30 00:47:00,42.4,34.7,30.27,SSW,208,0.0,5.0,74,0.00,FEW,FEW,0.00,WeatherDisplay:10.37,2013-04-30 07:47:00,
2013-04-30 01:02:00,42.1,34.7,30.27,SSW,210,0.0,6.0,75,0.00,OVC,FEW,0.00,WeatherDisplay:10.37,2013-04-30 08:02:00,
2013-04-30 01:17:00,41.9,34.6,30.27,South,188,1.0,3.0,75,0.00,OVC,FEW,0.00,WeatherDisplay:10.37,2013-04-30 08:17:00,
2013-04-30 01:32:00,41.4,34.0,30.27,South,191,0.0,4.0,75,0.00,OVC,FEW,0.00,WeatherDisplay:10.37,2013-04-30 08:32:00,
2013-04-30 01:47:00,40.8,33.5,30.26,SSW,195,1.0,2.0,75,0.00,OVC,FEW,0.00,WeatherDisplay:10.37,2013-04-30 08:47:00,
2013-04-30 02:02:00,40.6,33.7,30.26,South,178,0.0,2.0,76,0.00,BKN,FEW,0.00,WeatherDisplay:10.37,2013-04-30 09:02:00,
2013-04-30 02:17:00,40.5,33.5,30.27,SE,127,0.0,2.0,76,0.00,BKN,FEW,0.00,WeatherDisplay:10.37,2013-04-30 09:17:00,
2013-04-30 02:32:00,40.6,34.3,30.27,NNW,327,1.0,3.0,78,0.00,BKN,FEW,0.00,WeatherDisplay:10.37,2013-04-30 09:32:00,
2013-04-30 02:47:00,41.2,34.8,30.27,SW,223,0.0,3.0,78,0.00,BKN,FEW,0.00,WeatherDisplay:10.37,2013-04-30 09:47:00,
2013-04-30 03:02:00,40.8,34.2,30.27,South,178,0.0,2.0,77,0.00,OVC,FEW,0.00,WeatherDisplay:10.37,2013-04-30 10:02:00,
2013-04-30 03:17:00,39.9,33.3,30.27,South,181,0.0,2.0,77,0.00,OVC,FEW,0.00,WeatherDisplay:10.37,2013-04-30 10:17:00,
2013-04-30 03:32:00,39.4,33.1,30.27,SSE,159,0.0,1.0,78,0.00,OVC,FEW,0.00,WeatherDisplay:10.37,2013-04-30 10:32:00,
2013-04-30 03:47:00,39.9,34.2,30.28,North,3,2.0,7.0,80,0.02,RA,FEW,0.02,WeatherDisplay:10.37,2013-04-30 10:47:00,
2013-04-30 04:02:00,40.3,34.6,30.27,SE,131,0.0,2.0,80,0.00,OVC,FEW,0.02,WeatherDisplay:10.37,2013-04-30 11:02:00,
2013-04-30 04:17:00,40.2,34.6,30.28,South,173,0.0,1.0,80,0.00,OVC,FEW,0.02,WeatherDisplay:10.37,2013-04-30 11:17:00,
2013-04-30 04:32:00,39.7,34.1,30.28,SSE,165,0.0,2.0,80,0.00,OVC,FEW,0.02,WeatherDisplay:10.37,2013-04-30 11:32:00,
2013-04-30 04:47:00,39.4,33.7,30.27,SSE,154,0.0,1.0,80,0.00,OVC,FEW,0.02,WeatherDisplay:10.37,2013-04-30 11:47:00,
2013-04-30 05:02:00,39.4,33.7,30.27,ESE,120,0.0,2.0,80,0.00,-RA,FEW,0.02,WeatherDisplay:10.37,2013-04-30 12:02:00,
2013-04-30 05:17:00,39.4,34.0,30.29,NNE,26,5.0,8.0,81,0.00,-RA,FEW,0.02,WeatherDisplay:10.37,2013-04-30 12:17:00,
2013-04-30 05:32:00,39.7,34.6,30.27,SSW,207,0.0,7.0,82,0.02,-RA,FEW,0.04,WeatherDisplay:10.37,2013-04-30 12:32:00,
2013-04-30 05:47:00,39.4,34.3,30.28,SE,138,0.0,0.0,82,0.00,-RA,FEW,0.04,WeatherDisplay:10.37,2013-04-30 12:47:00,
2013-04-30 06:02:00,39.5,34.5,30.28,South,184,0.0,3.0,82,0.02,RA,FEW,0.07,WeatherDisplay:10.37,2013-04-30 13:02:00,
2013-04-30 06:17:00,39.6,34.5,30.28,SSE,147,0.0,2.0,82,0.00,OVC,FEW,0.07,WeatherDisplay:10.37,2013-04-30 13:17:00,
2013-04-30 06:32:00,39.4,34.3,30.29,SSW,197,0.0,0.0,82,0.00,OVC,FEW,0.07,WeatherDisplay:10.37,2013-04-30 13:32:00,
2013-04-30 06:47:00,39.4,34.3,30.30,SSW,201,0.0,1.0,82,0.00,OVC,FEW,0.07,WeatherDisplay:10.37,2013-04-30 13:47:00,
2013-04-30 07:02:00,40.0,34.9,30.30,West,265,0.0,6.0,82,0.00,-RA,FEW,0.07,WeatherDisplay:10.37,2013-04-30 14:02:00,
2013-04-30 07:17:00,40.3,35.2,30.31,East,100,0.0,0.0,82,0.00,-RA,FEW,0.07,WeatherDisplay:10.37,2013-04-30 14:17:00,
2013-04-30 07:32:00,41.4,36.3,30.30,SSE,156,0.0,1.0,82,0.00,-RA,FEW,0.07,WeatherDisplay:10.37,2013-04-30 14:32:00,
2013-04-30 07:47:00,42.6,37.8,30.30,SSE,158,0.0,0.0,83,0.00,-RA,FEW,0.07,WeatherDisplay:10.37,2013-04-30 14:47:00,
2013-04-30 08:02:00,44.9,40.0,30.30,SSE,157,0.0,2.0,83,0.00,OVC,FEW,0.07,WeatherDisplay:10.37,2013-04-30 15:02:00,
2013-04-30 08:17:00,46.2,41.0,30.30,East,93,0.0,0.0,82,0.00,OVC,FEW,0.07,WeatherDisplay:10.37,2013-04-30 15:17:00,
2013-04-30 08:32:00,47.5,41.6,30.31,ENE,69,1.0,2.0,80,0.00,OVC,FEW,0.07,WeatherDisplay:10.37,2013-04-30 15:32:00,
2013-04-30 08:47:00,51.0,44.0,30.31,North,2,0.0,3.0,77,0.00,OVC,FEW,0.07,WeatherDisplay:10.37,2013-04-30 15:47:00,
2013-04-30 09:02:00,50.8,41.7,30.31,WNW,300,1.0,7.0,71,0.00,SCT,FEW,0.07,WeatherDisplay:10.37,2013-04-30 16:02:00,
2013-04-30 09:17:00,49.1,39.7,30.32,WSW,258,1.0,7.0,70,0.00,SCT,FEW,0.07,WeatherDisplay:10.37,2013-04-30 16:17:00,
2013-04-30 09:32:00,51.4,42.7,30.31,SW,215,2.0,8.0,72,0.00,SCT,FEW,0.07,WeatherDisplay:10.37,2013-04-30 16:32:00,
2013-04-30 09:47:00,53.7,43.8,30.32,SSW,200,1.0,5.0,69,0.00,SCT,FEW,0.07,WeatherDisplay:10.37,2013-04-30 16:47:00,
2013-04-30 10:02:00,55.2,44.4,30.31,South,187,3.0,7.0,67,0.00,BKN,FEW,0.07,WeatherDisplay:10.37,2013-04-30 17:02:00,
2013-04-30 10:17:00,56.2,43.4,30.32,WNW,282,1.0,6.0,62,0.00,BKN,FEW,0.07,WeatherDisplay:10.37,2013-04-30 17:17:00,
2013-04-30 10:32:00,50.8,38.7,30.32,NW,325,2.0,10.0,63,0.00,BKN,FEW,0.07,WeatherDisplay:10.37,2013-04-30 17:32:00,
2013-04-30 10:47:00,49.1,38.6,30.33,SW,236,0.0,4.0,67,0.00,BKN,FEW,0.07,WeatherDisplay:10.37,2013-04-30 17:47:00,
2013-04-30 11:02:00,51.0,40.8,30.33,West,259,1.0,11.0,68,0.00,BKN,FEW,0.07,WeatherDisplay:10.37,2013-04-30 18:02:00,
2013-04-30 11:17:00,52.9,41.4,30.33,West,265,2.0,8.0,65,0.00,BKN,FEW,0.07,WeatherDisplay:10.37,2013-04-30 18:17:00,
2013-04-30 11:32:00,53.9,39.9,30.33,NNW,336,1.0,8.0,59,0.00,BKN,FEW,0.07,WeatherDisplay:10.37,2013-04-30 18:32:00,
2013-04-30 11:47:00,55.6,41.5,30.34,West,264,7.0,13.0,59,0.02,RA,FEW,0.09,WeatherDisplay:10.37,2013-04-30 18:47:00,
2013-04-30 12:02:00,56.8,41.8,30.34,West,264,7.0,12.0,57,0.00,BKN,FEW,0.09,WeatherDisplay:10.37,2013-04-30 19:02:00,
2013-04-30 12:17:00,58.8,43.6,30.34,WSW,253,5.0,8.0,57,0.00,BKN,FEW,0.09,WeatherDisplay:10.37,2013-04-30 19:17:00,
2013-04-30 12:32:00,58.9,42.3,30.34,West,261,2.0,13.0,54,0.00,BKN,FEW,0.09,WeatherDisplay:10.37,2013-04-30 19:32:00,
2013-04-30 12:47:00,59.2,41.1,30.34,WSW,256,3.0,10.0,51,0.00,BKN,FEW,0.09,WeatherDisplay:10.37,2013-04-30 19:47:00,
2013-04-30 13:02:00,59.5,40.9,30.34,West,262,1.0,10.0,50,0.00,CLR,FEW,0.09,WeatherDisplay:10.37,2013-04-30 20:02:00,
2013-04-30 13:17:00,60.1,40.3,30.35,WSW,258,5.0,13.0,48,0.00,CLR,FEW,0.09,WeatherDisplay:10.37,2013-04-30 20:17:00,
2013-04-30 13:32:00,58.8,38.6,30.35,WNW,286,3.0,13.0,47,0.00,CLR,FEW,0.09,WeatherDisplay:10.37,2013-04-30 20:32:00,
2013-04-30 13:47:00,59.6,39.3,30.35,WNW,282,5.0,13.0,47,0.00,CLR,FEW,0.09,WeatherDisplay:10.37,2013-04-30 20:47:00,
2013-04-30 14:02:00,58.9,38.1,30.35,WSW,248,5.0,13.0,46,0.00,CLR,FEW,0.09,WeatherDisplay:10.37,2013-04-30 21:02:00,
2013-04-30 14:17:00,59.3,38.0,30.36,WNW,285,1.0,16.0,45,0.00,CLR,FEW,0.09,WeatherDisplay:10.37,2013-04-30 21:17:00,
2013-04-30 14:32:00,59.1,37.7,30.36,West,269,5.0,12.0,45,0.00,CLR,FEW,0.09,WeatherDisplay:10.37,2013-04-30 21:32:00,
2013-04-30 14:47:00,58.7,37.9,30.37,West,269,6.0,12.0,46,0.00,CLR,FEW,0.09,WeatherDisplay:10.37,2013-04-30 21:47:00,
2013-04-30 15:02:00,58.8,38.1,30.37,West,262,2.0,11.0,46,0.00,CLR,FEW,0.09,WeatherDisplay:10.37,2013-04-30 22:02:00,
2013-04-30 15:17:00,59.5,37.6,30.37,West,275,1.0,12.0,44,0.00,CLR,FEW,0.09,WeatherDisplay:10.37,2013-04-30 22:17:00,
2013-04-30 15:32:00,60.1,38.1,30.37,SW,224,5.0,13.0,44,0.00,CLR,FEW,0.09,WeatherDisplay:10.37,2013-04-30 22:32:00,
2013-04-30 15:47:00,59.6,37.0,30.38,West,267,8.0,14.0,43,0.00,CLR,FEW,0.09,WeatherDisplay:10.37,2013-04-30 22:47:00,
2013-04-30 16:02:00,58.6,37.3,30.38,West,263,6.0,12.0,45,0.00,CLR,FEW,0.09,WeatherDisplay:10.37,2013-04-30 23:02:00,
2013-04-30 16:17:00,57.9,36.7,30.38,West,278,5.0,13.0,45,0.00,CLR,FEW,0.09,WeatherDisplay:10.37,2013-04-30 23:17:00,
2013-04-30 16:32:00,56.8,36.3,30.39,West,280,7.0,14.0,46,0.00,CLR,FEW,0.09,WeatherDisplay:10.37,2013-04-30 23:32:00,
2013-04-30 16:47:00,56.5,36.5,30.38,West,271,8.0,14.0,47,0.00,CLR,FEW,0.09,WeatherDisplay:10.37,2013-04-30 23:47:00,
2013-04-30 17:02:00,55.8,36.9,30.39,West,280,5.0,16.0,49,0.00,CLR,FEW,0.09,WeatherDisplay:10.37,2013-05-01 00:02:00,
2013-04-30 17:17:00,55.2,36.4,30.39,West,263,2.0,13.0,49,0.00,CLR,FEW,0.09,WeatherDisplay:10.37,2013-05-01 00:17:00,
2013-04-30 17:32:00,55.3,35.9,30.40,West,279,6.0,12.0,48,0.00,CLR,FEW,0.09,WeatherDisplay:10.37,2013-05-01 00:32:00,
2013-04-30 17:47:00,55.0,36.7,30.40,West,267,5.0,13.0,50,0.00,CLR,FEW,0.09,WeatherDisplay:10.37,2013-05-01 00:47:00,
2013-04-30 18:02:00,54.4,36.2,30.40,West,270,6.0,16.0,50,0.00,CLR,FEW,0.09,WeatherDisplay:10.37,2013-05-01 01:02:00,
2013-04-30 18:17:00,54.1,35.9,30.40,West,269,2.0,9.0,50,0.00,CLR,FEW,0.09,WeatherDisplay:10.37,2013-05-01 01:17:00,
2013-04-30 18:32:00,53.4,35.2,30.41,West,281,2.0,10.0,50,0.00,CLR,FEW,0.09,WeatherDisplay:10.37,2013-05-01 01:32:00,
2013-04-30 18:47:00,52.4,34.8,30.41,NW,311,1.0,8.0,51,0.00,CLR,FEW,0.09,WeatherDisplay:10.37,2013-05-01 01:47:00,
2013-04-30 19:02:00,51.6,34.1,30.41,NW,311,3.0,9.0,51,0.00,CLR,FEW,0.09,WeatherDisplay:10.37,2013-05-01 02:02:00,
2013-04-30 19:17:00,51.0,33.9,30.42,West,277,2.0,11.0,52,0.00,CLR,FEW,0.09,WeatherDisplay:10.37,2013-05-01 02:17:00,
2013-04-30 19:32:00,50.2,33.2,30.41,WNW,283,1.0,6.0,52,0.00,CLR,FEW,0.09,WeatherDisplay:10.37,2013-05-01 02:32:00,
2013-04-30 19:47:00,48.7,32.4,30.42,WNW,300,1.0,8.0,53,0.00,CLR,FEW,0.09,WeatherDisplay:10.37,2013-05-01 02:47:00,
2013-04-30 20:02:00,47.7,32.3,30.42,WNW,290,2.0,7.0,55,0.00,CLR,FEW,0.09,WeatherDisplay:10.37,2013-05-01 03:02:00,
2013-04-30 20:17:00,46.8,31.9,30.43,WNW,297,2.0,5.0,56,0.00,CLR,FEW,0.09,WeatherDisplay:10.37,2013-05-01 03:17:00,
2013-04-30 20:32:00,45.7,31.3,30.43,NNW,333,0.0,4.0,57,0.00,CLR,FEW,0.09,WeatherDisplay:10.37,2013-05-01 03:32:00,
2013-04-30 20:47:00,44.9,31.9,30.44,WNW,282,1.0,5.0,60,0.00,CLR,FEW,0.09,WeatherDisplay:10.37,2013-05-01 03:47:00,
2013-04-30 21:02:00,44.3,31.3,30.45,WNW,299,1.0,4.0,60,0.00,SCT,FEW,0.09,WeatherDisplay:10.37,2013-05-01 04:02:00,
2013-04-30 21:17:00,43.5,31.0,30.45,SW,231,2.0,6.0,61,0.00,SCT,FEW,0.09,WeatherDisplay:10.37,2013-05-01 04:17:00,
2013-04-30 21:32:00,42.6,30.5,30.45,SSW,203,0.0,2.0,62,0.00,SCT,FEW,0.09,WeatherDisplay:10.37,2013-05-01 04:32:00,
2013-04-30 21:47:00,41.1,29.9,30.46,SSE,159,0.0,0.0,64,0.00,SCT,FEW,0.09,WeatherDisplay:10.37,2013-05-01 04:47:00,
2013-04-30 22:02:00,39.6,28.8,30.47,SSE,159,0.0,0.0,65,0.00,FEW,FEW,0.09,WeatherDisplay:10.37,2013-05-01 05:02:00,
2013-04-30 22:17:00,38.3,28.3,30.47,SE,135,0.0,0.0,67,0.00,FEW,FEW,0.09,WeatherDisplay:10.37,2013-05-01 05:17:00,
2013-04-30 22:32:00,37.2,27.6,30.48,SE,138,0.0,0.0,68,0.00,FEW,FEW,0.09,WeatherDisplay:10.37,2013-05-01 05:32:00,
2013-04-30 22:47:00,36.3,27.5,30.48,SSE,161,0.0,0.0,70,0.00,FEW,FEW,0.09,WeatherDisplay:10.37,2013-05-01 05:47:00,
2013-04-30 23:02:00,35.6,27.1,30.48,SE,137,0.0,0.0,71,0.00,CLR,FEW,0.09,WeatherDisplay:10.37,2013-05-01 06:02:00,
2013-04-30 23:17:00,34.9,26.8,30.49,ESE,112,0.0,0.0,72,0.00,CLR,FEW,0.09,WeatherDisplay:10.37,2013-05-01 06:17:00,
2013-04-30 23:32:00,34.3,26.6,30.49,ESE,112,0.0,0.0,73,0.00,CLR,FEW,0.09,WeatherDisplay:10.37,2013-05-01 06:32:00,
2013-04-30 23:47:00,34.0,26.6,30.50,ESE,112,0.0,0.0,74,0.00,CLR,FEW,0.09,WeatherDisplay:10.37,2013-05-01 06:47:00,